sensor_id;sensor_type;location;lat;lon;timestamp;temperature;humidity
62575;DHT22;70119;45.638;11.714;2023-12-04T00:01:34;19.90;49.50
62575;DHT22;70119;45.638;11.714;2023-12-04T00:04:00;19.90;49.70
62575;DHT22;70119;45.638;11.714;2023-12-04T00:06:26;19.90;49.70
62575;DHT22;70119;45.638;11.714;2023-12-04T00:08:52;19.90;49.60
62575;DHT22;70119;45.638;11.714;2023-12-04T00:11:18;19.80;49.60
62575;DHT22;70119;45.638;11.714;2023-12-04T00:13:44;19.90;49.90
62575;DHT22;70119;45.638;11.714;2023-12-04T00:16:10;19.90;50.10
62575;DHT22;70119;45.638;11.714;2023-12-04T00:18:36;19.90;49.70
62575;DHT22;70119;45.638;11.714;2023-12-04T00:21:02;19.90;49.30
62575;DHT22;70119;45.638;11.714;2023-12-04T00:23:28;19.80;49.30
62575;DHT22;70119;45.638;11.714;2023-12-04T00:25:54;19.80;49.30
62575;DHT22;70119;45.638;11.714;2023-12-04T00:28:21;19.80;49.40
62575;DHT22;70119;45.638;11.714;2023-12-04T00:30:47;19.90;49.60
62575;DHT22;70119;45.638;11.714;2023-12-04T00:33:13;19.80;49.60
62575;DHT22;70119;45.638;11.714;2023-12-04T00:35:38;19.80;50.10
62575;DHT22;70119;45.638;11.714;2023-12-04T00:38:04;19.80;50.10
62575;DHT22;70119;45.638;11.714;2023-12-04T00:40:30;19.80;50.00
62575;DHT22;70119;45.638;11.714;2023-12-04T00:42:56;19.80;50.10
62575;DHT22;70119;45.638;11.714;2023-12-04T00:45:22;19.80;50.00
62575;DHT22;70119;45.638;11.714;2023-12-04T00:47:48;19.80;50.50
62575;DHT22;70119;45.638;11.714;2023-12-04T00:50:14;19.80;50.30
62575;DHT22;70119;45.638;11.714;2023-12-04T00:52:40;19.80;50.90
62575;DHT22;70119;45.638;11.714;2023-12-04T00:55:06;19.80;51.00
62575;DHT22;70119;45.638;11.714;2023-12-04T00:57:32;19.80;51.20
62575;DHT22;70119;45.638;11.714;2023-12-04T00:59:57;19.90;51.30
62575;DHT22;70119;45.638;11.714;2023-12-04T01:02:23;19.90;50.80
62575;DHT22;70119;45.638;11.714;2023-12-04T01:04:49;19.80;51.00
62575;DHT22;70119;45.638;11.714;2023-12-04T01:07:15;19.90;51.20
62575;DHT22;70119;45.638;11.714;2023-12-04T01:09:41;19.90;51.40
62575;DHT22;70119;45.638;11.714;2023-12-04T01:12:07;19.80;51.60
62575;DHT22;70119;45.638;11.714;2023-12-04T01:14:33;19.80;51.30
62575;DHT22;70119;45.638;11.714;2023-12-04T01:16:59;19.70;51.20
62575;DHT22;70119;45.638;11.714;2023-12-04T01:19:24;19.70;51.10
62575;DHT22;70119;45.638;11.714;2023-12-04T01:21:50;19.70;51.50
62575;DHT22;70119;45.638;11.714;2023-12-04T01:24:16;19.70;51.00
62575;DHT22;70119;45.638;11.714;2023-12-04T01:26:42;19.70;50.30
62575;DHT22;70119;45.638;11.714;2023-12-04T01:29:08;19.70;49.90
62575;DHT22;70119;45.638;11.714;2023-12-04T01:31:34;19.70;49.80
62575;DHT22;70119;45.638;11.714;2023-12-04T01:34:00;19.70;49.80
62575;DHT22;70119;45.638;11.714;2023-12-04T01:36:26;19.70;50.10
62575;DHT22;70119;45.638;11.714;2023-12-04T01:38:52;19.70;49.60
62575;DHT22;70119;45.638;11.714;2023-12-04T01:41:17;19.70;49.70
62575;DHT22;70119;45.638;11.714;2023-12-04T01:43:43;19.70;49.50
62575;DHT22;70119;45.638;11.714;2023-12-04T01:46:10;19.60;49.10
62575;DHT22;70119;45.638;11.714;2023-12-04T01:48:36;19.70;49.10
62575;DHT22;70119;45.638;11.714;2023-12-04T01:51:06;19.60;49.00
62575;DHT22;70119;45.638;11.714;2023-12-04T01:53:33;19.60;49.10
62575;DHT22;70119;45.638;11.714;2023-12-04T01:56:00;19.60;49.40
62575;DHT22;70119;45.638;11.714;2023-12-04T01:58:26;19.60;48.90
62575;DHT22;70119;45.638;11.714;2023-12-04T02:00:52;19.60;48.80
62575;DHT22;70119;45.638;11.714;2023-12-04T02:03:18;19.60;49.20
62575;DHT22;70119;45.638;11.714;2023-12-04T02:05:44;19.60;48.90
62575;DHT22;70119;45.638;11.714;2023-12-04T02:08:10;19.60;48.80
62575;DHT22;70119;45.638;11.714;2023-12-04T02:10:37;19.60;49.00
62575;DHT22;70119;45.638;11.714;2023-12-04T02:13:04;19.60;49.10
62575;DHT22;70119;45.638;11.714;2023-12-04T02:15:30;19.50;49.20
62575;DHT22;70119;45.638;11.714;2023-12-04T02:17:56;19.60;49.30
62575;DHT22;70119;45.638;11.714;2023-12-04T02:20:34;19.50;49.30
62575;DHT22;70119;45.638;11.714;2023-12-04T02:23:01;19.50;48.90
62575;DHT22;70119;45.638;11.714;2023-12-04T02:25:28;19.50;49.20
62575;DHT22;70119;45.638;11.714;2023-12-04T02:27:56;19.50;49.30
62575;DHT22;70119;45.638;11.714;2023-12-04T02:30:24;19.50;49.70
62575;DHT22;70119;45.638;11.714;2023-12-04T02:32:52;19.50;49.90
62575;DHT22;70119;45.638;11.714;2023-12-04T02:35:24;19.50;50.30
62575;DHT22;70119;45.638;11.714;2023-12-04T02:37:52;19.50;50.80
62575;DHT22;70119;45.638;11.714;2023-12-04T02:40:18;19.40;51.00
62575;DHT22;70119;45.638;11.714;2023-12-04T02:42:44;19.50;50.90
62575;DHT22;70119;45.638;11.714;2023-12-04T02:45:11;19.50;51.10
62575;DHT22;70119;45.638;11.714;2023-12-04T02:47:37;19.40;50.70
62575;DHT22;70119;45.638;11.714;2023-12-04T02:50:03;19.40;50.70
62575;DHT22;70119;45.638;11.714;2023-12-04T02:52:29;19.40;50.70
62575;DHT22;70119;45.638;11.714;2023-12-04T02:54:55;19.50;50.00
62575;DHT22;70119;45.638;11.714;2023-12-04T02:57:21;19.40;49.20
62575;DHT22;70119;45.638;11.714;2023-12-04T02:59:48;19.50;49.30
62575;DHT22;70119;45.638;11.714;2023-12-04T03:02:14;19.40;49.50
62575;DHT22;70119;45.638;11.714;2023-12-04T03:04:40;19.40;49.90
62575;DHT22;70119;45.638;11.714;2023-12-04T03:07:06;19.40;50.30
62575;DHT22;70119;45.638;11.714;2023-12-04T03:09:31;19.40;49.70
62575;DHT22;70119;45.638;11.714;2023-12-04T03:11:57;19.40;49.50
62575;DHT22;70119;45.638;11.714;2023-12-04T03:14:23;19.40;49.90
62575;DHT22;70119;45.638;11.714;2023-12-04T03:16:50;19.40;50.80
62575;DHT22;70119;45.638;11.714;2023-12-04T03:19:15;19.40;51.10
62575;DHT22;70119;45.638;11.714;2023-12-04T03:21:41;19.40;51.30
62575;DHT22;70119;45.638;11.714;2023-12-04T03:24:07;19.40;51.50
62575;DHT22;70119;45.638;11.714;2023-12-04T03:26:33;19.40;51.60
62575;DHT22;70119;45.638;11.714;2023-12-04T03:28:59;19.40;51.70
62575;DHT22;70119;45.638;11.714;2023-12-04T03:31:25;19.40;51.80
62575;DHT22;70119;45.638;11.714;2023-12-04T03:33:51;19.40;51.90
62575;DHT22;70119;45.638;11.714;2023-12-04T03:36:17;19.40;51.90
62575;DHT22;70119;45.638;11.714;2023-12-04T03:38:43;19.40;51.80
62575;DHT22;70119;45.638;11.714;2023-12-04T03:41:15;19.40;51.20
62575;DHT22;70119;45.638;11.714;2023-12-04T03:43:41;19.40;50.80
62575;DHT22;70119;45.638;11.714;2023-12-04T03:46:08;19.30;51.20
62575;DHT22;70119;45.638;11.714;2023-12-04T03:48:34;19.30;51.60
62575;DHT22;70119;45.638;11.714;2023-12-04T03:50:59;19.30;51.40
62575;DHT22;70119;45.638;11.714;2023-12-04T03:53:26;19.30;51.60
62575;DHT22;70119;45.638;11.714;2023-12-04T03:55:52;19.30;51.60
62575;DHT22;70119;45.638;11.714;2023-12-04T03:58:18;19.30;51.30
62575;DHT22;70119;45.638;11.714;2023-12-04T04:00:44;19.20;51.30
62575;DHT22;70119;45.638;11.714;2023-12-04T04:03:11;19.20;51.60
62575;DHT22;70119;45.638;11.714;2023-12-04T04:05:42;19.20;51.60
62575;DHT22;70119;45.638;11.714;2023-12-04T04:08:09;19.20;52.00
62575;DHT22;70119;45.638;11.714;2023-12-04T04:10:36;19.20;51.80
62575;DHT22;70119;45.638;11.714;2023-12-04T04:13:04;19.20;51.70
62575;DHT22;70119;45.638;11.714;2023-12-04T04:15:30;19.20;51.90
62575;DHT22;70119;45.638;11.714;2023-12-04T04:17:55;19.10;52.10
62575;DHT22;70119;45.638;11.714;2023-12-04T04:20:21;19.20;52.10
62575;DHT22;70119;45.638;11.714;2023-12-04T04:22:50;19.20;51.50
62575;DHT22;70119;45.638;11.714;2023-12-04T04:25:17;19.20;51.00
62575;DHT22;70119;45.638;11.714;2023-12-04T04:27:44;19.10;50.70
62575;DHT22;70119;45.638;11.714;2023-12-04T04:30:10;19.20;50.90
62575;DHT22;70119;45.638;11.714;2023-12-04T04:32:42;19.10;50.90
62575;DHT22;70119;45.638;11.714;2023-12-04T04:35:11;19.10;50.80
62575;DHT22;70119;45.638;11.714;2023-12-04T04:37:38;19.10;50.80
62575;DHT22;70119;45.638;11.714;2023-12-04T04:40:06;19.10;51.30
62575;DHT22;70119;45.638;11.714;2023-12-04T04:42:37;19.10;51.60
62575;DHT22;70119;45.638;11.714;2023-12-04T04:45:03;19.10;50.60
62575;DHT22;70119;45.638;11.714;2023-12-04T04:47:29;19.10;50.30
62575;DHT22;70119;45.638;11.714;2023-12-04T04:49:55;19.10;50.30
62575;DHT22;70119;45.638;11.714;2023-12-04T04:52:30;19.10;50.50
62575;DHT22;70119;45.638;11.714;2023-12-04T04:55:06;19.10;51.00
62575;DHT22;70119;45.638;11.714;2023-12-04T04:57:32;19.10;51.30
62575;DHT22;70119;45.638;11.714;2023-12-04T04:59:58;19.10;51.70
62575;DHT22;70119;45.638;11.714;2023-12-04T05:02:24;19.10;52.00
62575;DHT22;70119;45.638;11.714;2023-12-04T05:04:50;19.10;52.10
62575;DHT22;70119;45.638;11.714;2023-12-04T05:07:16;19.10;52.10
62575;DHT22;70119;45.638;11.714;2023-12-04T05:09:42;19.10;52.20
62575;DHT22;70119;45.638;11.714;2023-12-04T05:12:08;19.10;52.10
62575;DHT22;70119;45.638;11.714;2023-12-04T05:14:34;19.10;52.20
62575;DHT22;70119;45.638;11.714;2023-12-04T05:17:00;19.10;52.20
62575;DHT22;70119;45.638;11.714;2023-12-04T05:19:25;19.10;52.20
62575;DHT22;70119;45.638;11.714;2023-12-04T05:21:55;19.10;52.20
62575;DHT22;70119;45.638;11.714;2023-12-04T05:24:21;19.10;52.20
62575;DHT22;70119;45.638;11.714;2023-12-04T05:26:47;19.10;52.10
62575;DHT22;70119;45.638;11.714;2023-12-04T05:29:13;19.10;51.60
62575;DHT22;70119;45.638;11.714;2023-12-04T05:31:39;19.10;51.30
62575;DHT22;70119;45.638;11.714;2023-12-04T05:34:09;19.10;51.40
62575;DHT22;70119;45.638;11.714;2023-12-04T05:36:35;19.10;51.20
62575;DHT22;70119;45.638;11.714;2023-12-04T05:39:01;19.10;51.10
62575;DHT22;70119;45.638;11.714;2023-12-04T05:41:27;19.00;51.10
62575;DHT22;70119;45.638;11.714;2023-12-04T05:43:53;19.00;50.80
62575;DHT22;70119;45.638;11.714;2023-12-04T05:46:19;19.10;50.50
62575;DHT22;70119;45.638;11.714;2023-12-04T05:48:44;19.10;50.90
62575;DHT22;70119;45.638;11.714;2023-12-04T05:51:10;19.00;51.00
62575;DHT22;70119;45.638;11.714;2023-12-04T05:53:37;19.00;50.30
62575;DHT22;70119;45.638;11.714;2023-12-04T05:56:05;19.00;49.90
62575;DHT22;70119;45.638;11.714;2023-12-04T05:58:31;19.00;50.00
62575;DHT22;70119;45.638;11.714;2023-12-04T06:00:56;19.00;49.60
62575;DHT22;70119;45.638;11.714;2023-12-04T06:03:22;19.00;49.70
62575;DHT22;70119;45.638;11.714;2023-12-04T06:05:48;18.90;49.60
62575;DHT22;70119;45.638;11.714;2023-12-04T06:08:14;19.00;49.60
62575;DHT22;70119;45.638;11.714;2023-12-04T06:10:40;19.00;49.60
62575;DHT22;70119;45.638;11.714;2023-12-04T06:13:09;19.00;49.30
62575;DHT22;70119;45.638;11.714;2023-12-04T06:15:39;18.90;49.50
62575;DHT22;70119;45.638;11.714;2023-12-04T06:18:11;18.90;49.60
62575;DHT22;70119;45.638;11.714;2023-12-04T06:20:37;18.90;49.20
62575;DHT22;70119;45.638;11.714;2023-12-04T06:23:03;18.90;49.00
62575;DHT22;70119;45.638;11.714;2023-12-04T06:25:30;18.90;49.10
62575;DHT22;70119;45.638;11.714;2023-12-04T06:27:56;18.90;49.40
62575;DHT22;70119;45.638;11.714;2023-12-04T06:30:22;18.90;49.50
62575;DHT22;70119;45.638;11.714;2023-12-04T06:32:48;18.90;50.20
62575;DHT22;70119;45.638;11.714;2023-12-04T06:35:14;18.80;51.00
62575;DHT22;70119;45.638;11.714;2023-12-04T06:37:41;18.90;50.80
62575;DHT22;70119;45.638;11.714;2023-12-04T06:40:08;18.80;50.80
62575;DHT22;70119;45.638;11.714;2023-12-04T06:42:37;18.80;50.20
62575;DHT22;70119;45.638;11.714;2023-12-04T06:45:03;18.90;49.70
62575;DHT22;70119;45.638;11.714;2023-12-04T06:47:35;18.90;49.60
62575;DHT22;70119;45.638;11.714;2023-12-04T06:50:07;18.90;49.80
62575;DHT22;70119;45.638;11.714;2023-12-04T06:52:37;18.90;49.80
62575;DHT22;70119;45.638;11.714;2023-12-04T06:55:05;18.90;49.80
62575;DHT22;70119;45.638;11.714;2023-12-04T06:57:33;18.90;49.90
62575;DHT22;70119;45.638;11.714;2023-12-04T07:00:01;18.90;50.70
62575;DHT22;70119;45.638;11.714;2023-12-04T07:02:29;18.90;51.10
62575;DHT22;70119;45.638;11.714;2023-12-04T07:04:54;18.90;51.40
62575;DHT22;70119;45.638;11.714;2023-12-04T07:07:21;18.90;51.40
62575;DHT22;70119;45.638;11.714;2023-12-04T07:09:47;18.90;50.70
62575;DHT22;70119;45.638;11.714;2023-12-04T07:12:13;18.90;50.90
62575;DHT22;70119;45.638;11.714;2023-12-04T07:14:40;18.90;50.70
62575;DHT22;70119;45.638;11.714;2023-12-04T07:17:10;18.90;50.20
62575;DHT22;70119;45.638;11.714;2023-12-04T07:19:51;19.00;50.20
62575;DHT22;70119;45.638;11.714;2023-12-04T07:22:31;18.90;49.80
62575;DHT22;70119;45.638;11.714;2023-12-04T07:25:16;18.90;49.70
62575;DHT22;70119;45.638;11.714;2023-12-04T07:27:53;18.90;49.50
62575;DHT22;70119;45.638;11.714;2023-12-04T07:30:22;18.90;49.50
62575;DHT22;70119;45.638;11.714;2023-12-04T07:32:48;18.90;49.60
62575;DHT22;70119;45.638;11.714;2023-12-04T07:35:16;18.90;50.20
62575;DHT22;70119;45.638;11.714;2023-12-04T07:37:43;18.90;49.80
62575;DHT22;70119;45.638;11.714;2023-12-04T07:40:10;19.00;49.60
62575;DHT22;70119;45.638;11.714;2023-12-04T07:42:36;19.00;50.20
62575;DHT22;70119;45.638;11.714;2023-12-04T07:45:05;19.00;49.70
62575;DHT22;70119;45.638;11.714;2023-12-04T07:47:35;19.00;49.20
62575;DHT22;70119;45.638;11.714;2023-12-04T07:50:02;19.00;49.10
62575;DHT22;70119;45.638;11.714;2023-12-04T07:52:28;19.00;49.20
62575;DHT22;70119;45.638;11.714;2023-12-04T07:54:54;19.00;49.30
62575;DHT22;70119;45.638;11.714;2023-12-04T07:57:21;19.00;49.30
62575;DHT22;70119;45.638;11.714;2023-12-04T07:59:48;19.00;49.30
62575;DHT22;70119;45.638;11.714;2023-12-04T08:02:14;19.00;49.00
62575;DHT22;70119;45.638;11.714;2023-12-04T08:04:45;18.90;48.90
62575;DHT22;70119;45.638;11.714;2023-12-04T08:07:17;18.90;49.00
62575;DHT22;70119;45.638;11.714;2023-12-04T08:09:47;18.90;49.20
62575;DHT22;70119;45.638;11.714;2023-12-04T08:12:15;19.00;49.10
62575;DHT22;70119;45.638;11.714;2023-12-04T08:14:41;18.90;49.20
62575;DHT22;70119;45.638;11.714;2023-12-04T08:17:07;18.90;49.40
62575;DHT22;70119;45.638;11.714;2023-12-04T08:19:33;18.90;49.60
62575;DHT22;70119;45.638;11.714;2023-12-04T08:21:59;18.90;49.40
62575;DHT22;70119;45.638;11.714;2023-12-04T08:24:25;18.90;48.70
62575;DHT22;70119;45.638;11.714;2023-12-04T08:26:51;18.90;50.30
62575;DHT22;70119;45.638;11.714;2023-12-04T08:29:17;19.00;49.60
62575;DHT22;70119;45.638;11.714;2023-12-04T08:31:43;18.90;49.20
62575;DHT22;70119;45.638;11.714;2023-12-04T08:34:09;18.90;49.60
62575;DHT22;70119;45.638;11.714;2023-12-04T08:36:35;18.90;48.80
62575;DHT22;70119;45.638;11.714;2023-12-04T08:39:01;18.90;48.20
62575;DHT22;70119;45.638;11.714;2023-12-04T08:41:27;18.80;48.10
62575;DHT22;70119;45.638;11.714;2023-12-04T08:43:54;18.80;48.10
62575;DHT22;70119;45.638;11.714;2023-12-04T08:46:21;18.70;47.90
62575;DHT22;70119;45.638;11.714;2023-12-04T08:48:47;18.80;48.00
62575;DHT22;70119;45.638;11.714;2023-12-04T08:51:16;18.80;47.40
62575;DHT22;70119;45.638;11.714;2023-12-04T08:53:43;18.80;47.40
62575;DHT22;70119;45.638;11.714;2023-12-04T08:56:09;18.80;47.50
62575;DHT22;70119;45.638;11.714;2023-12-04T08:58:35;18.80;47.50
62575;DHT22;70119;45.638;11.714;2023-12-04T09:01:01;18.90;47.20
62575;DHT22;70119;45.638;11.714;2023-12-04T09:03:28;18.90;47.20
62575;DHT22;70119;45.638;11.714;2023-12-04T09:05:53;18.90;47.00
62575;DHT22;70119;45.638;11.714;2023-12-04T09:08:22;18.90;47.10
62575;DHT22;70119;45.638;11.714;2023-12-04T09:10:48;18.80;47.10
62575;DHT22;70119;45.638;11.714;2023-12-04T09:13:15;18.90;47.20
62575;DHT22;70119;45.638;11.714;2023-12-04T09:15:41;18.80;47.40
62575;DHT22;70119;45.638;11.714;2023-12-04T09:18:07;18.80;47.20
62575;DHT22;70119;45.638;11.714;2023-12-04T09:20:38;18.80;47.10
62575;DHT22;70119;45.638;11.714;2023-12-04T09:23:10;18.80;47.20
62575;DHT22;70119;45.638;11.714;2023-12-04T09:25:36;18.90;47.40
62575;DHT22;70119;45.638;11.714;2023-12-04T09:28:02;18.90;47.40
62575;DHT22;70119;45.638;11.714;2023-12-04T09:30:30;18.80;47.40
62575;DHT22;70119;45.638;11.714;2023-12-04T09:32:55;18.90;47.40
62575;DHT22;70119;45.638;11.714;2023-12-04T09:35:22;18.80;47.60
62575;DHT22;70119;45.638;11.714;2023-12-04T09:37:48;18.90;47.40
62575;DHT22;70119;45.638;11.714;2023-12-04T09:40:16;18.80;47.40
62575;DHT22;70119;45.638;11.714;2023-12-04T09:42:42;18.80;47.50
62575;DHT22;70119;45.638;11.714;2023-12-04T09:45:09;18.80;47.70
62575;DHT22;70119;45.638;11.714;2023-12-04T09:47:35;18.80;47.80
62575;DHT22;70119;45.638;11.714;2023-12-04T09:50:02;18.80;47.50
62575;DHT22;70119;45.638;11.714;2023-12-04T09:52:28;18.80;47.70
62575;DHT22;70119;45.638;11.714;2023-12-04T09:54:55;18.90;47.60
62575;DHT22;70119;45.638;11.714;2023-12-04T09:57:23;18.80;48.00
62575;DHT22;70119;45.638;11.714;2023-12-04T09:59:51;18.90;47.90
62575;DHT22;70119;45.638;11.714;2023-12-04T10:02:18;18.90;47.80
62575;DHT22;70119;45.638;11.714;2023-12-04T10:04:45;18.90;47.70
62575;DHT22;70119;45.638;11.714;2023-12-04T10:07:11;18.90;49.10
62575;DHT22;70119;45.638;11.714;2023-12-04T10:09:38;18.90;48.40
62575;DHT22;70119;45.638;11.714;2023-12-04T10:12:05;19.00;49.50
62575;DHT22;70119;45.638;11.714;2023-12-04T10:14:31;19.00;50.00
62575;DHT22;70119;45.638;11.714;2023-12-04T10:16:57;19.00;48.80
62575;DHT22;70119;45.638;11.714;2023-12-04T10:19:28;19.00;48.40
62575;DHT22;70119;45.638;11.714;2023-12-04T10:21:58;19.10;48.30
62575;DHT22;70119;45.638;11.714;2023-12-04T10:24:35;19.10;48.00
62575;DHT22;70119;45.638;11.714;2023-12-04T10:27:06;19.10;47.60
62575;DHT22;70119;45.638;11.714;2023-12-04T10:29:45;19.10;47.50
62575;DHT22;70119;45.638;11.714;2023-12-04T10:32:11;19.10;47.20
62575;DHT22;70119;45.638;11.714;2023-12-04T10:34:37;19.00;47.30
62575;DHT22;70119;45.638;11.714;2023-12-04T10:37:05;19.00;47.30
62575;DHT22;70119;45.638;11.714;2023-12-04T10:39:33;19.00;47.30
62575;DHT22;70119;45.638;11.714;2023-12-04T10:42:10;19.00;47.30
62575;DHT22;70119;45.638;11.714;2023-12-04T10:44:36;19.00;47.10
62575;DHT22;70119;45.638;11.714;2023-12-04T10:47:06;19.00;47.10
62575;DHT22;70119;45.638;11.714;2023-12-04T10:49:33;19.00;47.10
62575;DHT22;70119;45.638;11.714;2023-12-04T10:52:00;18.90;47.00
62575;DHT22;70119;45.638;11.714;2023-12-04T10:54:27;18.90;47.10
62575;DHT22;70119;45.638;11.714;2023-12-04T10:56:58;18.90;46.90
62575;DHT22;70119;45.638;11.714;2023-12-04T10:59:28;18.90;47.10
62575;DHT22;70119;45.638;11.714;2023-12-04T11:02:00;18.90;47.00
62575;DHT22;70119;45.638;11.714;2023-12-04T11:04:29;18.90;47.10
62575;DHT22;70119;45.638;11.714;2023-12-04T11:06:58;18.90;47.00
62575;DHT22;70119;45.638;11.714;2023-12-04T11:09:25;18.90;46.90
62575;DHT22;70119;45.638;11.714;2023-12-04T11:11:57;18.90;46.70
62575;DHT22;70119;45.638;11.714;2023-12-04T11:14:34;18.90;47.20
62575;DHT22;70119;45.638;11.714;2023-12-04T11:17:08;18.90;47.10
62575;DHT22;70119;45.638;11.714;2023-12-04T11:19:57;18.90;46.60
62575;DHT22;70119;45.638;11.714;2023-12-04T11:22:26;18.90;46.80
62575;DHT22;70119;45.638;11.714;2023-12-04T11:24:52;18.90;46.90
62575;DHT22;70119;45.638;11.714;2023-12-04T11:27:20;18.90;46.80
62575;DHT22;70119;45.638;11.714;2023-12-04T11:29:47;18.90;46.60
62575;DHT22;70119;45.638;11.714;2023-12-04T11:32:17;18.90;46.80
62575;DHT22;70119;45.638;11.714;2023-12-04T11:34:58;18.90;46.90
62575;DHT22;70119;45.638;11.714;2023-12-04T11:37:25;18.90;46.70
62575;DHT22;70119;45.638;11.714;2023-12-04T11:39:51;18.90;47.00
62575;DHT22;70119;45.638;11.714;2023-12-04T11:42:23;18.90;46.80
62575;DHT22;70119;45.638;11.714;2023-12-04T11:44:49;18.90;46.80
62575;DHT22;70119;45.638;11.714;2023-12-04T11:47:21;18.90;47.00
62575;DHT22;70119;45.638;11.714;2023-12-04T11:49:47;18.90;47.00
62575;DHT22;70119;45.638;11.714;2023-12-04T11:52:12;18.90;46.90
62575;DHT22;70119;45.638;11.714;2023-12-04T11:57:26;18.80;46.40
62575;DHT22;70119;45.638;11.714;2023-12-04T12:00:10;18.90;47.00
62575;DHT22;70119;45.638;11.714;2023-12-04T12:03:02;18.90;47.00
62575;DHT22;70119;45.638;11.714;2023-12-04T12:05:29;18.90;46.50
62575;DHT22;70119;45.638;11.714;2023-12-04T12:07:56;18.90;47.20
62575;DHT22;70119;45.638;11.714;2023-12-04T12:10:22;18.80;47.10
62575;DHT22;70119;45.638;11.714;2023-12-04T12:12:48;18.80;47.30
62575;DHT22;70119;45.638;11.714;2023-12-04T12:15:14;18.90;47.20
62575;DHT22;70119;45.638;11.714;2023-12-04T12:17:41;18.90;47.30
62575;DHT22;70119;45.638;11.714;2023-12-04T12:20:13;18.90;47.30
62575;DHT22;70119;45.638;11.714;2023-12-04T12:22:40;18.90;47.10
62575;DHT22;70119;45.638;11.714;2023-12-04T12:25:10;18.90;47.10
62575;DHT22;70119;45.638;11.714;2023-12-04T12:27:37;18.90;47.20
62575;DHT22;70119;45.638;11.714;2023-12-04T12:30:03;18.90;47.20
62575;DHT22;70119;45.638;11.714;2023-12-04T12:32:34;18.90;47.30
62575;DHT22;70119;45.638;11.714;2023-12-04T12:35:00;18.90;47.50
62575;DHT22;70119;45.638;11.714;2023-12-04T12:37:26;18.90;47.40
62575;DHT22;70119;45.638;11.714;2023-12-04T12:39:52;18.90;47.50
62575;DHT22;70119;45.638;11.714;2023-12-04T12:42:37;18.90;47.40
62575;DHT22;70119;45.638;11.714;2023-12-04T12:45:09;18.90;47.20
62575;DHT22;70119;45.638;11.714;2023-12-04T12:47:37;18.90;47.40
62575;DHT22;70119;45.638;11.714;2023-12-04T12:50:06;18.90;47.60
62575;DHT22;70119;45.638;11.714;2023-12-04T12:52:33;18.90;47.40
62575;DHT22;70119;45.638;11.714;2023-12-04T12:54:59;18.90;47.40
62575;DHT22;70119;45.638;11.714;2023-12-04T12:57:25;19.00;48.60
62575;DHT22;70119;45.638;11.714;2023-12-04T12:59:52;18.90;49.20
62575;DHT22;70119;45.638;11.714;2023-12-04T13:02:20;18.90;49.30
62575;DHT22;70119;45.638;11.714;2023-12-04T13:04:47;18.90;49.30
62575;DHT22;70119;45.638;11.714;2023-12-04T13:07:13;19.00;49.60
62575;DHT22;70119;45.638;11.714;2023-12-04T13:09:39;18.90;49.80
62575;DHT22;70119;45.638;11.714;2023-12-04T13:12:05;18.90;50.00
62575;DHT22;70119;45.638;11.714;2023-12-04T13:14:33;19.00;50.20
62575;DHT22;70119;45.638;11.714;2023-12-04T13:17:00;18.90;50.30
62575;DHT22;70119;45.638;11.714;2023-12-04T13:19:27;19.00;50.40
62575;DHT22;70119;45.638;11.714;2023-12-04T13:21:52;19.00;50.40
62575;DHT22;70119;45.638;11.714;2023-12-04T13:24:19;19.00;50.60
62575;DHT22;70119;45.638;11.714;2023-12-04T13:26:45;19.00;50.70
62575;DHT22;70119;45.638;11.714;2023-12-04T13:29:12;19.00;50.80
62575;DHT22;70119;45.638;11.714;2023-12-04T13:31:41;19.00;50.80
62575;DHT22;70119;45.638;11.714;2023-12-04T13:34:07;19.00;50.90
62575;DHT22;70119;45.638;11.714;2023-12-04T13:36:36;19.00;51.00
62575;DHT22;70119;45.638;11.714;2023-12-04T13:39:03;19.00;51.00
62575;DHT22;70119;45.638;11.714;2023-12-04T13:41:31;19.00;51.10
62575;DHT22;70119;45.638;11.714;2023-12-04T13:44:15;19.00;51.10
62575;DHT22;70119;45.638;11.714;2023-12-04T13:46:41;19.00;51.20
62575;DHT22;70119;45.638;11.714;2023-12-04T13:49:07;19.00;51.30
62575;DHT22;70119;45.638;11.714;2023-12-04T13:51:33;19.00;51.30
62575;DHT22;70119;45.638;11.714;2023-12-04T13:54:00;19.00;51.40
62575;DHT22;70119;45.638;11.714;2023-12-04T13:56:40;19.00;51.40
62575;DHT22;70119;45.638;11.714;2023-12-04T13:59:18;18.90;51.40
62575;DHT22;70119;45.638;11.714;2023-12-04T14:01:46;19.00;51.50
62575;DHT22;70119;45.638;11.714;2023-12-04T14:04:12;19.00;51.50
62575;DHT22;70119;45.638;11.714;2023-12-04T14:06:38;19.00;51.60
62575;DHT22;70119;45.638;11.714;2023-12-04T14:09:04;19.00;51.60
62575;DHT22;70119;45.638;11.714;2023-12-04T14:11:38;19.00;51.60
62575;DHT22;70119;45.638;11.714;2023-12-04T14:14:04;19.00;51.60
62575;DHT22;70119;45.638;11.714;2023-12-04T14:16:33;19.00;51.60
62575;DHT22;70119;45.638;11.714;2023-12-04T14:18:59;19.00;51.70
62575;DHT22;70119;45.638;11.714;2023-12-04T14:21:24;19.00;51.70
62575;DHT22;70119;45.638;11.714;2023-12-04T14:23:50;18.90;51.70
62575;DHT22;70119;45.638;11.714;2023-12-04T14:26:16;19.00;51.80
62575;DHT22;70119;45.638;11.714;2023-12-04T14:28:42;18.90;51.80
62575;DHT22;70119;45.638;11.714;2023-12-04T14:31:09;19.00;51.80
62575;DHT22;70119;45.638;11.714;2023-12-04T14:33:35;18.90;51.80
62575;DHT22;70119;45.638;11.714;2023-12-04T14:36:01;19.00;51.80
62575;DHT22;70119;45.638;11.714;2023-12-04T14:38:27;18.90;51.90
62575;DHT22;70119;45.638;11.714;2023-12-04T14:40:53;18.90;51.90
62575;DHT22;70119;45.638;11.714;2023-12-04T14:43:19;18.90;51.90
62575;DHT22;70119;45.638;11.714;2023-12-04T14:45:45;19.00;51.90
62575;DHT22;70119;45.638;11.714;2023-12-04T14:48:11;19.00;51.90
62575;DHT22;70119;45.638;11.714;2023-12-04T14:50:37;19.00;51.90
62575;DHT22;70119;45.638;11.714;2023-12-04T14:53:05;19.00;51.80
62575;DHT22;70119;45.638;11.714;2023-12-04T14:55:54;19.00;51.70
62575;DHT22;70119;45.638;11.714;2023-12-04T14:58:39;18.90;51.70
62575;DHT22;70119;45.638;11.714;2023-12-04T15:01:14;18.90;51.50
62575;DHT22;70119;45.638;11.714;2023-12-04T15:03:42;18.90;51.30
62575;DHT22;70119;45.638;11.714;2023-12-04T15:06:08;18.90;51.00
62575;DHT22;70119;45.638;11.714;2023-12-04T15:08:37;18.90;51.00
62575;DHT22;70119;45.638;11.714;2023-12-04T15:11:21;18.90;51.00
62575;DHT22;70119;45.638;11.714;2023-12-04T15:14:09;18.90;51.20
62575;DHT22;70119;45.638;11.714;2023-12-04T15:16:41;18.90;51.00
62575;DHT22;70119;45.638;11.714;2023-12-04T15:19:19;18.90;50.90
62575;DHT22;70119;45.638;11.714;2023-12-04T15:22:13;18.90;51.00